Terminal Aerodrome Forecast
Issued by NWS

Current Version | Previous Version | Graphics & Text | Print | Product List | Glossary On
Versions: 1 2 3 4 5 6 7 8 9 10 11 12 13 14 15 16 17 18 19 20 21 22
781
FTUS41 KPBZ 191725
TAFMGW
TAF
KMGW 191725Z 1918/2018 00000KT P6SM OVC010
     FM192300 20003KT P6SM OVC015
     FM200900 14008KT P6SM VCSH OVC060
     FM201100 16005KT 2SM -RA BR OVC007 WS020/20035KT=

USA.gov is the U.S. government's official web portal to all federal, state and local government web resources and services.